createdAt,value
2019-05-22T00:00:31.096Z,57.17
2019-05-22T00:03:00.315Z,62.50
2019-05-22T00:05:31.645Z,58.53
2019-05-22T00:08:01.578Z,59.73
2019-05-22T00:10:32.373Z,52.40
2019-05-22T00:13:00.912Z,54.10
2019-05-22T00:15:30.885Z,55.73
2019-05-22T00:18:01.203Z,58.07
2019-05-22T00:20:31.558Z,48.93
2019-05-22T00:23:01.527Z,50.33
2019-05-22T00:25:33.257Z,47.60
2019-05-22T00:28:01.936Z,47.43
2019-05-22T00:30:32.114Z,49.50
2019-05-22T00:33:00.868Z,51.20
2019-05-22T00:35:31.311Z,48.13
2019-05-22T00:38:01.276Z,47.27
2019-05-22T00:40:31.612Z,50.73
2019-05-22T00:43:04.041Z,46.80
2019-05-22T00:45:31.091Z,48.00
2019-05-22T00:48:00.163Z,51.27
2019-05-22T00:50:30.078Z,52.63
2019-05-22T00:53:01.463Z,49.30
2019-05-22T00:55:49.578Z,48.50
2019-05-22T00:58:22.224Z,53.50
2019-05-22T01:01:12.118Z,52.40
2019-05-22T01:03:42.197Z,56.77
2019-05-22T01:06:12.437Z,53.83
2019-05-22T01:08:42.264Z,55.73
2019-05-22T01:11:13.656Z,47.47
2019-05-22T01:13:42.615Z,54.57
2019-05-22T01:16:13.546Z,59.83
2019-05-22T01:18:43.164Z,55.93
2019-05-22T01:21:14.114Z,51.40
2019-05-22T01:23:43.275Z,50.47
2019-05-22T01:26:15.641Z,54.33
2019-05-22T01:28:44.214Z,53.47
2019-05-22T01:31:31.239Z,53.30
2019-05-22T01:34:05.280Z,52.87
2019-05-22T01:36:38.057Z,50.57
2019-05-22T01:39:20.986Z,54.03
2019-05-22T01:41:50.854Z,51.60
2019-05-22T01:44:20.998Z,47.73
2019-05-22T01:46:51.369Z,39.10
2019-05-22T01:49:21.772Z,42.63
2019-05-22T01:51:50.245Z,49.73
2019-05-22T01:54:19.348Z,38.27
2019-05-22T01:56:48.479Z,41.03
2019-05-22T01:59:16.835Z,39.13
2019-05-22T02:01:47.249Z,34.40
2019-05-22T02:04:17.272Z,35.13
2019-05-22T02:06:45.651Z,40.40
2019-05-22T02:09:21.918Z,33.67
2019-05-22T02:11:54.090Z,35.80
2019-05-22T02:14:22.497Z,32.23
2019-05-22T02:16:56.723Z,35.13
2019-05-22T02:19:24.224Z,36.90
2019-05-22T02:21:52.783Z,34.93
2019-05-22T02:24:22.830Z,35.27
2019-05-22T02:26:52.556Z,34.07
2019-05-22T02:29:21.942Z,26.83
2019-05-22T02:31:55.091Z,29.87
2019-05-22T02:34:21.300Z,32.40
2019-05-22T02:36:49.818Z,28.80
2019-05-22T02:39:26.723Z,25.30
2019-05-22T02:41:58.495Z,25.13
2019-05-22T02:44:28.490Z,23.03
2019-05-22T02:47:17.214Z,23.07
2019-05-22T02:49:29.735Z,24.77
2019-05-22T02:51:58.854Z,21.60
2019-05-22T02:54:29.516Z,26.37
2019-05-22T02:56:58.503Z,22.27
2019-05-22T02:59:27.407Z,22.33
2019-05-22T03:01:56.458Z,20.60
2019-05-22T03:04:26.747Z,19.40
2019-05-22T03:06:55.487Z,20.47
2019-05-22T03:09:26.783Z,20.60
2019-05-22T03:12:01.119Z,17.10
2019-05-22T03:14:30.687Z,19.83
2019-05-22T03:17:02.333Z,15.57
2019-05-22T03:19:33.528Z,17.87
2019-05-22T03:22:04.531Z,17.03
2019-05-22T03:24:33.283Z,15.30
2019-05-22T03:27:03.123Z,15.07
2019-05-22T03:29:37.726Z,16.87
2019-05-22T03:32:07.280Z,14.47
2019-05-22T03:34:36.312Z,18.67
2019-05-22T03:37:05.134Z,18.17
2019-05-22T03:39:35.010Z,19.57
2019-05-22T03:42:05.060Z,17.90
2019-05-22T03:44:33.510Z,20.57
2019-05-22T03:47:02.131Z,19.37
2019-05-22T03:49:31.382Z,21.60
2019-05-22T03:52:02.047Z,20.17
2019-05-22T03:54:30.522Z,17.77
2019-05-22T03:56:59.462Z,21.07
2019-05-22T03:59:27.901Z,19.33
2019-05-22T04:01:57.814Z,21.63
2019-05-22T04:04:35.247Z,19.33
2019-05-22T04:07:05.530Z,23.53
2019-05-22T04:09:34.561Z,24.70
2019-05-22T04:12:03.008Z,25.67
2019-05-22T04:14:35.016Z,25.63
2019-05-22T04:17:05.598Z,27.80
2019-05-22T04:19:48.329Z,23.23
2019-05-22T04:22:05.834Z,20.47
2019-05-22T04:24:34.479Z,30.70
2019-05-22T04:27:05.040Z,24.60
2019-05-22T04:29:34.388Z,24.83
2019-05-22T04:32:14.967Z,26.43
2019-05-22T04:34:44.192Z,30.47
2019-05-22T04:37:14.335Z,30.53
2019-05-22T04:39:45.103Z,32.80
2019-05-22T04:42:14.083Z,29.23
2019-05-22T04:44:44.235Z,27.33
2019-05-22T04:47:13.093Z,32.00
2019-05-22T04:49:41.836Z,30.30
2019-05-22T04:52:11.061Z,31.27
2019-05-22T04:54:39.563Z,31.70
2019-05-22T04:57:08.716Z,30.67
2019-05-22T04:59:37.463Z,31.07
2019-05-22T05:02:17.167Z,29.87
2019-05-22T05:04:45.743Z,25.93
2019-05-22T05:07:14.737Z,27.60
2019-05-22T05:09:43.613Z,28.47
2019-05-22T05:12:12.047Z,26.60
2019-05-22T05:14:40.655Z,33.43
2019-05-22T05:17:09.799Z,30.50
2019-05-22T05:19:38.278Z,31.20
2019-05-22T05:22:07.180Z,30.00
2019-05-22T05:24:35.802Z,31.97
2019-05-22T05:27:04.799Z,27.37
2019-05-22T05:29:34.238Z,30.20
2019-05-22T05:32:03.468Z,26.63
2019-05-22T05:34:34.742Z,31.23
2019-05-22T05:37:04.839Z,30.93
2019-05-22T05:39:59.984Z,25.30
2019-05-22T05:42:28.525Z,29.33
2019-05-22T05:44:57.075Z,36.10
2019-05-22T05:47:25.431Z,29.03
2019-05-22T05:49:55.765Z,27.13
2019-05-22T05:52:26.280Z,38.90
2019-05-22T05:54:55.090Z,28.63
2019-05-22T05:57:58.367Z,31.23
2019-05-22T06:00:31.123Z,29.30
2019-05-22T06:03:02.244Z,28.30
2019-05-22T06:05:30.935Z,33.43
2019-05-22T06:07:59.312Z,26.57
2019-05-22T06:10:44.591Z,24.47
2019-05-22T06:13:13.145Z,28.87
2019-05-22T06:16:00.175Z,23.37
2019-05-22T06:18:35.521Z,25.73
2019-05-22T06:21:04.874Z,29.87
2019-05-22T06:23:56.238Z,25.97
2019-05-22T06:27:08.051Z,25.73
2019-05-22T06:30:13.081Z,24.97
2019-05-22T06:33:01.741Z,21.07
2019-05-22T06:35:33.689Z,18.27
2019-05-22T06:38:11.575Z,20.23
2019-05-22T06:40:40.872Z,17.47
2019-05-22T06:43:37.718Z,20.83
2019-05-22T06:46:06.666Z,17.33
2019-05-22T06:48:35.163Z,21.83
2019-05-22T06:51:18.316Z,15.37
2019-05-22T06:53:33.739Z,14.07
2019-05-22T06:56:02.181Z,16.00
2019-05-22T06:58:30.577Z,13.23
2019-05-22T07:00:59.185Z,18.13
2019-05-22T07:03:27.589Z,13.57
2019-05-22T07:05:56.900Z,13.87
2019-05-22T07:08:25.360Z,14.03
2019-05-22T07:10:53.906Z,16.07
2019-05-22T07:13:22.273Z,12.37
2019-05-22T07:15:51.911Z,12.43
2019-05-22T07:18:22.435Z,11.80
2019-05-22T07:20:52.472Z,13.83
2019-05-22T07:23:24.922Z,12.93
2019-05-22T07:25:54.542Z,12.10
2019-05-22T07:28:23.763Z,15.10
2019-05-22T07:30:52.381Z,14.63
2019-05-22T07:33:22.105Z,13.93
2019-05-22T07:36:08.631Z,10.63
2019-05-22T07:38:21.715Z,13.03
2019-05-22T07:40:51.729Z,12.63
2019-05-22T07:43:21.328Z,9.47
2019-05-22T07:45:50.639Z,12.20
2019-05-22T07:48:20.201Z,12.00
2019-05-22T07:50:49.963Z,11.87
2019-05-22T07:53:18.338Z,9.33
2019-05-22T07:55:47.818Z,9.70
2019-05-22T07:58:17.789Z,11.97
2019-05-22T08:00:59.960Z,9.13
2019-05-22T08:03:30.777Z,11.93
2019-05-22T08:05:59.718Z,9.90
2019-05-22T08:08:31.495Z,12.10
2019-05-22T08:11:00.761Z,11.73
2019-05-22T08:13:30.943Z,8.03
2019-05-22T08:15:59.523Z,9.33
2019-05-22T08:18:30.383Z,10.73
2019-05-22T08:20:59.001Z,10.23
2019-05-22T08:23:28.200Z,11.03
2019-05-22T08:25:57.465Z,11.23
2019-05-22T08:28:26.350Z,10.40
2019-05-22T08:30:54.901Z,10.00
2019-05-22T08:33:24.088Z,9.93
2019-05-22T08:35:52.573Z,9.67
2019-05-22T08:38:26.221Z,7.83
2019-05-22T08:40:54.710Z,10.80
2019-05-22T08:43:23.219Z,11.20
2019-05-22T08:45:51.994Z,9.70
2019-05-22T08:48:20.999Z,7.80
2019-05-22T08:50:49.941Z,8.70
2019-05-22T08:53:19.278Z,9.53
2019-05-22T08:55:47.723Z,8.73
2019-05-22T08:58:17.217Z,9.00
2019-05-22T09:00:45.725Z,11.43
2019-05-22T09:03:15.388Z,13.00
2019-05-22T09:05:44.105Z,11.60
2019-05-22T09:08:12.701Z,8.97
2019-05-22T09:10:41.231Z,10.50
2019-05-22T09:13:09.738Z,10.90
2019-05-22T09:15:40.056Z,15.00
2019-05-22T09:18:09.142Z,11.53
2019-05-22T09:20:48.761Z,9.27
2019-05-22T09:23:09.485Z,10.27
2019-05-22T09:25:38.402Z,7.93
2019-05-22T09:28:07.082Z,8.83
2019-05-22T09:30:36.037Z,9.97
2019-05-22T09:33:06.263Z,9.37
2019-05-22T09:35:34.691Z,9.63
2019-05-22T09:38:03.143Z,10.67
2019-05-22T09:40:32.151Z,10.33
2019-05-22T09:43:01.012Z,11.73
2019-05-22T09:45:29.597Z,9.00
2019-05-22T09:47:58.224Z,10.13
2019-05-22T09:50:26.681Z,7.73
2019-05-22T09:52:57.919Z,8.83
2019-05-22T09:55:25.715Z,9.00
2019-05-22T09:57:54.288Z,8.37
2019-05-22T10:00:25.422Z,8.47
2019-05-22T10:02:53.698Z,9.83
2019-05-22T10:05:22.966Z,9.03
2019-05-22T10:08:00.247Z,9.77
2019-05-22T10:10:22.809Z,8.13
2019-05-22T10:12:51.341Z,8.00
2019-05-22T10:15:20.860Z,7.77
2019-05-22T10:17:49.726Z,11.77
2019-05-22T10:20:19.713Z,11.23
2019-05-22T10:22:49.123Z,7.33
2019-05-22T10:25:18.081Z,8.83
2019-05-22T10:27:47.028Z,9.33
2019-05-22T10:30:16.319Z,8.80
2019-05-22T10:32:44.888Z,8.63
2019-05-22T10:35:13.991Z,9.90
2019-05-22T10:37:42.626Z,10.53
2019-05-22T10:40:13.000Z,8.30
2019-05-22T10:42:44.709Z,9.67
2019-05-22T10:45:14.050Z,7.63
2019-05-22T10:47:43.006Z,9.47
2019-05-22T10:50:11.577Z,9.20
2019-05-22T10:52:41.171Z,8.47
2019-05-22T10:55:10.495Z,8.93
2019-05-22T10:57:41.933Z,7.80
2019-05-22T11:00:11.982Z,8.87
2019-05-22T11:02:40.450Z,8.97
2019-05-22T11:05:08.951Z,9.50
2019-05-22T11:07:37.410Z,10.07
2019-05-22T11:10:06.348Z,9.40
2019-05-22T11:12:35.047Z,9.00
2019-05-22T11:15:04.247Z,8.97
2019-05-22T11:17:32.849Z,8.87
2019-05-22T11:20:01.488Z,8.67
2019-05-22T11:22:30.270Z,12.43
2019-05-22T11:24:59.072Z,8.47
2019-05-22T11:27:27.569Z,7.57
2019-05-22T11:29:56.818Z,7.90
2019-05-22T11:32:25.733Z,11.87
2019-05-22T11:34:54.477Z,8.70
2019-05-22T11:37:23.036Z,8.27
2019-05-22T11:39:52.060Z,9.20
2019-05-22T11:42:20.893Z,7.57
2019-05-22T11:44:49.416Z,8.10
2019-05-22T11:47:18.274Z,8.93
2019-05-22T11:49:53.620Z,7.80
2019-05-22T11:52:22.606Z,9.00
2019-05-22T11:54:51.260Z,8.00
2019-05-22T11:57:20.132Z,8.47
2019-05-22T11:59:48.621Z,8.90
2019-05-22T12:02:18.293Z,8.63
2019-05-22T12:04:48.921Z,7.83
2019-05-22T12:07:17.930Z,9.20
2019-05-22T12:09:47.559Z,8.17
2019-05-22T12:12:16.486Z,8.90
2019-05-22T12:14:44.987Z,9.23
2019-05-22T12:17:13.969Z,7.03
2019-05-22T12:19:43.452Z,8.03
2019-05-22T12:22:14.105Z,7.27
2019-05-22T12:24:42.707Z,12.07
2019-05-22T12:27:12.127Z,9.30
2019-05-22T12:29:42.231Z,7.33
2019-05-22T12:32:10.856Z,8.13
2019-05-22T12:34:39.435Z,7.67
2019-05-22T12:37:09.432Z,7.93
2019-05-22T12:39:38.848Z,7.63
2019-05-22T12:42:07.878Z,8.30
2019-05-22T12:44:37.007Z,8.63
2019-05-22T12:47:07.325Z,7.83
2019-05-22T12:49:46.119Z,7.70
2019-05-22T12:52:15.888Z,7.43
2019-05-22T12:54:52.597Z,7.77
2019-05-22T12:57:19.466Z,7.60
2019-05-22T12:59:48.969Z,6.57
2019-05-22T13:02:18.117Z,8.47
2019-05-22T13:04:54.314Z,7.43
2019-05-22T13:07:23.893Z,7.70
2019-05-22T13:09:58.611Z,10.90
2019-05-22T13:12:38.421Z,13.17
2019-05-22T13:15:10.473Z,26.23
2019-05-22T13:17:39.151Z,6.77
2019-05-22T13:20:09.778Z,7.23
2019-05-22T13:22:44.806Z,7.10
2019-05-22T13:25:15.061Z,8.27
2019-05-22T13:27:44.877Z,5.37
2019-05-22T13:30:15.461Z,8.10
2019-05-22T13:32:51.980Z,7.93
2019-05-22T13:35:20.832Z,7.00
2019-05-22T13:37:49.824Z,5.37
2019-05-22T13:40:27.691Z,5.17
2019-05-22T13:42:48.740Z,5.70
2019-05-22T13:45:29.434Z,4.40
2019-05-22T13:47:55.571Z,5.70
2019-05-22T13:50:28.477Z,4.43
2019-05-22T13:52:56.083Z,5.63
2019-05-22T13:55:25.183Z,4.63
2019-05-22T13:57:53.831Z,6.77
2019-05-22T14:00:25.986Z,5.07
2019-05-22T14:02:59.693Z,8.03
2019-05-22T14:05:30.725Z,5.50
2019-05-22T14:07:59.564Z,4.20
2019-05-22T14:10:34.880Z,3.77
2019-05-22T14:13:04.170Z,4.07
2019-05-22T14:15:48.825Z,4.27
2019-05-22T14:18:08.147Z,4.53
2019-05-22T14:20:38.467Z,4.10
2019-05-22T14:23:09.260Z,5.40
2019-05-22T14:25:37.871Z,4.20
2019-05-22T14:28:07.603Z,4.07
2019-05-22T14:30:38.156Z,5.10
2019-05-22T14:33:06.773Z,5.97
2019-05-22T14:35:48.483Z,4.30
2019-05-22T14:38:11.509Z,3.10
2019-05-22T14:40:40.669Z,5.77
2019-05-22T14:43:10.468Z,4.17
2019-05-22T14:45:39.211Z,5.33
2019-05-22T14:48:08.223Z,4.57
2019-05-22T14:50:36.675Z,5.47
2019-05-22T14:53:05.123Z,4.20
2019-05-22T14:55:34.483Z,3.87
2019-05-22T14:58:04.558Z,4.33
2019-05-22T15:00:33.375Z,4.33
2019-05-22T15:03:01.931Z,3.83
2019-05-22T15:05:30.435Z,4.00
2019-05-22T15:07:59.052Z,5.57
2019-05-22T15:10:28.793Z,5.23
2019-05-22T15:12:57.236Z,4.70
2019-05-22T15:15:25.943Z,4.77
2019-05-22T15:17:54.653Z,4.37
2019-05-22T15:20:27.306Z,4.87
2019-05-22T15:22:56.507Z,4.00
2019-05-22T15:25:26.720Z,4.40
2019-05-22T15:27:55.164Z,5.13
2019-05-22T15:30:23.697Z,5.50
2019-05-22T15:32:52.652Z,5.97
2019-05-22T15:35:21.700Z,6.00
2019-05-22T15:37:50.771Z,5.70
2019-05-22T15:40:19.739Z,5.77
2019-05-22T15:42:48.399Z,8.03
2019-05-22T15:45:19.665Z,8.53
2019-05-22T15:47:55.461Z,6.37
2019-05-22T15:50:21.057Z,5.20
2019-05-22T15:52:51.868Z,6.97
2019-05-22T15:55:21.270Z,5.03
2019-05-22T15:57:50.494Z,10.10
2019-05-22T16:00:21.304Z,5.70
2019-05-22T16:02:50.254Z,5.77
2019-05-22T16:05:19.389Z,8.27
2019-05-22T16:07:48.647Z,8.03
2019-05-22T16:10:18.191Z,7.67
2019-05-22T16:12:46.727Z,5.97
2019-05-22T16:15:16.855Z,5.63
2019-05-22T16:17:48.003Z,5.90
2019-05-22T16:20:18.430Z,6.13
2019-05-22T16:22:46.886Z,5.93
2019-05-22T16:25:15.483Z,7.10
2019-05-22T16:27:44.805Z,8.00
2019-05-22T16:30:13.239Z,7.67
2019-05-22T16:32:42.202Z,6.83
2019-05-22T16:35:10.770Z,7.73
2019-05-22T16:37:39.696Z,8.60
2019-05-22T16:40:09.993Z,7.30
2019-05-22T16:42:39.000Z,9.50
2019-05-22T16:45:07.535Z,7.07
2019-05-22T16:47:36.428Z,9.20
2019-05-22T16:50:05.739Z,9.00
2019-05-22T16:52:35.728Z,7.83
2019-05-22T16:55:06.777Z,7.67
2019-05-22T16:57:35.804Z,7.93
2019-05-22T17:00:04.676Z,7.80
2019-05-22T17:02:34.560Z,8.80
2019-05-22T17:05:04.031Z,7.97
2019-05-22T17:07:32.558Z,7.57
2019-05-22T17:10:02.111Z,8.03
2019-05-22T17:12:30.714Z,8.57
2019-05-22T17:15:00.254Z,8.47
2019-05-22T17:17:28.720Z,9.33
2019-05-22T17:19:57.155Z,7.07
2019-05-22T17:22:26.387Z,7.17
2019-05-22T17:24:54.766Z,8.43
2019-05-22T17:27:23.595Z,6.97
2019-05-22T17:29:52.701Z,6.57
2019-05-22T17:32:21.735Z,6.97
2019-05-22T17:34:50.194Z,6.73
2019-05-22T17:37:21.127Z,13.63
2019-05-22T17:39:50.364Z,8.57
2019-05-22T17:42:20.522Z,35.90
2019-05-22T17:44:51.359Z,14.53
2019-05-22T17:47:21.582Z,8.13
2019-05-22T17:49:50.623Z,12.40
2019-05-22T17:52:19.969Z,10.13
2019-05-22T17:54:50.931Z,9.10
2019-05-22T17:57:21.413Z,11.30
2019-05-22T17:59:50.287Z,9.73
2019-05-22T18:02:20.572Z,8.83
2019-05-22T18:04:49.779Z,9.23
2019-05-22T18:07:18.246Z,7.50
2019-05-22T18:09:46.739Z,10.70
2019-05-22T18:12:15.793Z,8.07
2019-05-22T18:14:44.352Z,9.63
2019-05-22T18:17:12.987Z,12.37
2019-05-22T18:19:42.424Z,8.60
2019-05-22T18:22:12.604Z,9.47
2019-05-22T18:24:41.795Z,9.07
2019-05-22T18:27:10.274Z,9.03
2019-05-22T18:29:38.937Z,9.50
2019-05-22T18:32:08.271Z,9.43
2019-05-22T18:34:36.877Z,8.90
2019-05-22T18:37:05.440Z,8.80
2019-05-22T18:39:34.706Z,9.47
2019-05-22T18:42:03.465Z,8.13
2019-05-22T18:44:32.035Z,7.90
2019-05-22T18:47:00.559Z,6.63
2019-05-22T18:49:29.242Z,9.50
2019-05-22T18:51:58.051Z,6.70
2019-05-22T18:54:26.594Z,6.83
2019-05-22T18:56:55.235Z,7.60
2019-05-22T18:59:23.790Z,6.60
2019-05-22T19:01:52.675Z,6.17
2019-05-22T19:04:21.259Z,6.53
2019-05-22T19:06:49.867Z,6.80
2019-05-22T19:09:18.476Z,8.03
2019-05-22T19:11:47.129Z,8.73
2019-05-22T19:14:17.028Z,9.17
2019-05-22T19:16:45.562Z,7.40
2019-05-22T19:19:14.093Z,6.93
2019-05-22T19:21:42.687Z,7.43
2019-05-22T19:24:11.288Z,8.07
2019-05-22T19:26:39.955Z,7.33
2019-05-22T19:29:08.487Z,7.83
2019-05-22T19:31:37.115Z,6.67
2019-05-22T19:34:05.591Z,7.53
2019-05-22T19:36:34.418Z,8.07
2019-05-22T19:39:03.327Z,12.83
2019-05-22T19:41:32.446Z,6.93
2019-05-22T19:44:01.702Z,7.83
2019-05-22T19:46:30.825Z,8.20
2019-05-22T19:48:59.350Z,10.30
2019-05-22T19:51:29.668Z,8.07
2019-05-22T19:53:58.476Z,9.23
2019-05-22T19:56:27.774Z,11.23
2019-05-22T19:58:57.388Z,10.10
2019-05-22T20:01:25.938Z,9.37
2019-05-22T20:03:54.883Z,9.47
2019-05-22T20:06:23.429Z,9.73
2019-05-22T20:08:52.642Z,10.47
2019-05-22T20:11:21.534Z,11.60
2019-05-22T20:13:50.156Z,10.23
2019-05-22T20:16:18.862Z,9.87
2019-05-22T20:18:47.403Z,12.43
2019-05-22T20:21:17.548Z,10.77
2019-05-22T20:23:46.147Z,9.47
2019-05-22T20:26:14.551Z,10.37
2019-05-22T20:28:46.076Z,10.53
2019-05-22T20:31:14.568Z,10.30
2019-05-22T20:33:43.086Z,12.23
2019-05-22T20:36:12.831Z,10.70
2019-05-22T20:38:41.295Z,12.60
2019-05-22T20:41:09.873Z,11.77
2019-05-22T20:43:41.944Z,11.03
2019-05-22T20:46:10.915Z,12.80
2019-05-22T20:48:40.627Z,11.23
2019-05-22T20:51:11.840Z,11.20
2019-05-22T20:53:53.702Z,11.37
2019-05-22T20:56:13.165Z,12.97
2019-05-22T20:58:42.324Z,13.43
2019-05-22T21:01:12.429Z,11.57
2019-05-22T21:03:41.260Z,11.60
2019-05-22T21:06:13.041Z,13.60
2019-05-22T21:08:50.741Z,12.40
2019-05-22T21:11:20.349Z,13.77
2019-05-22T21:13:50.805Z,13.13
2019-05-22T21:16:21.908Z,12.33
2019-05-22T21:18:55.902Z,14.60
2019-05-22T21:21:34.969Z,12.30
2019-05-22T21:24:28.406Z,15.30
2019-05-22T21:26:57.052Z,16.10
2019-05-22T21:29:25.583Z,19.47
2019-05-22T21:31:54.224Z,18.10
2019-05-22T21:34:23.404Z,20.00
2019-05-22T21:36:51.935Z,20.40
2019-05-22T21:39:20.387Z,20.00
2019-05-22T21:41:48.909Z,25.27
2019-05-22T21:44:17.544Z,21.53
2019-05-22T21:46:46.072Z,24.37
2019-05-22T21:49:16.099Z,22.97
2019-05-22T21:51:44.526Z,24.03
2019-05-22T21:54:13.275Z,24.57
2019-05-22T21:56:42.735Z,23.27
2019-05-22T21:59:11.380Z,27.60
2019-05-22T22:01:50.667Z,26.53
2019-05-22T22:04:32.328Z,24.13
2019-05-22T22:07:01.342Z,28.47
2019-05-22T22:09:30.384Z,24.47
2019-05-22T22:11:59.167Z,29.83
2019-05-22T22:14:29.267Z,25.23
2019-05-22T22:16:57.649Z,26.80
2019-05-22T22:19:26.748Z,27.40
2019-05-22T22:21:55.949Z,25.43
2019-05-22T22:24:24.387Z,22.90
2019-05-22T22:26:53.411Z,22.03
2019-05-22T22:29:21.859Z,18.80
2019-05-22T22:31:51.363Z,21.20
2019-05-22T22:34:27.419Z,21.37
2019-05-22T22:36:56.746Z,20.73
2019-05-22T22:39:25.382Z,20.00
2019-05-22T22:41:55.526Z,21.63
2019-05-22T22:44:24.067Z,22.03
2019-05-22T22:47:03.152Z,21.57
2019-05-22T22:49:35.375Z,24.43
2019-05-22T22:52:07.620Z,26.60
2019-05-22T22:54:36.051Z,25.00
2019-05-22T22:57:05.346Z,26.57
2019-05-22T22:59:33.803Z,25.00
2019-05-22T23:02:02.847Z,27.60
2019-05-22T23:04:31.771Z,27.93
2019-05-22T23:07:02.792Z,27.50
2019-05-22T23:09:31.383Z,29.97
2019-05-22T23:12:00.294Z,29.93
2019-05-22T23:14:29.309Z,28.03
2019-05-22T23:16:58.404Z,29.00
2019-05-22T23:19:33.414Z,29.63
2019-05-22T23:22:04.073Z,30.13
2019-05-22T23:24:34.818Z,28.57
2019-05-22T23:27:03.319Z,26.80
2019-05-22T23:29:32.627Z,28.17
2019-05-22T23:32:02.257Z,25.60
2019-05-22T23:34:31.865Z,27.27
2019-05-22T23:37:00.372Z,26.17
2019-05-22T23:39:30.529Z,26.87
2019-05-22T23:42:00.686Z,29.23
2019-05-22T23:44:30.423Z,29.37
2019-05-22T23:46:59.288Z,31.40
2019-05-22T23:49:28.296Z,29.97
2019-05-22T23:51:57.129Z,30.77
2019-05-22T23:54:27.147Z,31.83
2019-05-22T23:56:55.518Z,32.77
2019-05-22T23:59:24.160Z,34.80
